createdAt,value
2018-02-11T00:00:49.094Z,59.80
2018-02-11T00:05:52.158Z,52.80
2018-02-11T00:10:55.003Z,57.43
2018-02-11T00:15:58.403Z,50.73
2018-02-11T00:21:01.248Z,49.27
2018-02-11T00:26:04.002Z,52.00
2018-02-11T00:31:06.789Z,53.10
2018-02-11T00:36:09.727Z,57.73
2018-02-11T00:41:12.394Z,52.60
2018-02-11T00:46:15.950Z,56.50
2018-02-11T00:51:19.022Z,51.50
2018-02-11T00:56:22.739Z,53.87
2018-02-11T01:01:26.521Z,53.60
2018-02-11T01:06:29.612Z,53.03
2018-02-11T01:11:32.278Z,53.93
2018-02-11T01:16:36.497Z,54.83
2018-02-11T01:21:39.118Z,57.80
2018-02-11T01:26:42.741Z,53.37
2018-02-11T01:31:45.394Z,52.83
2018-02-11T01:36:48.669Z,57.60
2018-02-11T01:41:51.479Z,57.10
2018-02-11T01:46:54.723Z,56.53
2018-02-11T01:51:57.380Z,60.80
2018-02-11T01:57:00.912Z,65.60
2018-02-11T02:02:03.544Z,59.73
2018-02-11T02:07:06.387Z,58.03
2018-02-11T02:12:09.782Z,57.67
2018-02-11T02:17:13.764Z,62.47
2018-02-11T02:22:16.538Z,69.47
2018-02-11T02:27:19.855Z,57.60
2018-02-11T02:32:22.519Z,59.03
2018-02-11T02:37:25.931Z,61.27
2018-02-11T02:42:29.319Z,58.80
2018-02-11T02:47:33.007Z,59.97
2018-02-11T02:52:35.716Z,60.80
2018-02-11T02:57:39.098Z,59.97
2018-02-11T03:02:41.719Z,59.37
2018-02-11T03:07:45.282Z,55.00
2018-02-11T03:12:47.870Z,53.17
2018-02-11T03:17:50.565Z,58.50
2018-02-11T03:22:53.144Z,51.77
2018-02-11T03:27:56.723Z,56.70
2018-02-11T03:32:59.344Z,53.00
2018-02-11T03:38:03.679Z,59.70
2018-02-11T03:43:07.077Z,58.63
2018-02-11T03:48:10.509Z,54.33
2018-02-11T03:53:13.146Z,60.57
2018-02-11T03:58:16.611Z,55.90
2018-02-11T04:03:19.248Z,52.17
2018-02-11T04:08:22.699Z,54.97
2018-02-11T04:13:25.331Z,61.40
2018-02-11T04:18:28.871Z,55.73
2018-02-11T04:23:31.495Z,55.57
2018-02-11T04:28:34.360Z,51.97
2018-02-11T04:33:36.954Z,53.70
2018-02-11T04:38:39.731Z,56.97
2018-02-11T04:43:42.317Z,56.20
2018-02-11T04:48:45.925Z,56.40
2018-02-11T04:53:48.543Z,59.20
2018-02-11T04:58:51.803Z,54.03
2018-02-11T05:03:55.191Z,49.87
2018-02-11T05:08:58.791Z,50.63
2018-02-11T05:14:01.410Z,52.93
2018-02-11T05:19:04.741Z,51.63
2018-02-11T05:24:07.370Z,50.87
2018-02-11T05:29:10.877Z,50.67
2018-02-11T05:34:14.306Z,46.43
2018-02-11T05:39:17.770Z,54.50
2018-02-11T05:44:20.380Z,50.63
2018-02-11T05:49:23.255Z,50.70
2018-02-11T05:54:25.897Z,52.57
2018-02-11T05:59:29.479Z,51.47
2018-02-11T06:04:32.070Z,50.90
2018-02-11T06:09:35.538Z,52.80
2018-02-11T06:14:38.960Z,50.03
2018-02-11T06:19:42.701Z,47.33
2018-02-11T06:24:45.402Z,48.03
2018-02-11T06:29:48.528Z,44.70
2018-02-11T06:34:51.120Z,48.73
2018-02-11T06:39:54.702Z,47.87
2018-02-11T06:44:58.814Z,46.53
2018-02-11T06:50:02.108Z,46.00
2018-02-11T06:55:04.729Z,43.20
2018-02-11T07:00:08.582Z,45.80
2018-02-11T07:05:11.196Z,46.20
2018-02-11T07:10:14.848Z,46.37
2018-02-11T07:15:17.476Z,45.40
2018-02-11T07:20:21.364Z,47.70
2018-02-11T07:25:23.996Z,48.27
2018-02-11T07:30:26.992Z,48.63
2018-02-11T07:35:29.594Z,48.90
2018-02-11T07:40:32.938Z,48.77
2018-02-11T07:45:35.583Z,50.07
2018-02-11T07:50:38.841Z,42.27
2018-02-11T07:55:41.484Z,54.37
2018-02-11T08:00:44.259Z,51.93
2018-02-11T08:05:46.881Z,50.97
2018-02-11T08:10:49.948Z,48.47
2018-02-11T08:15:52.588Z,55.70
2018-02-11T08:20:55.217Z,60.43
2018-02-11T08:25:57.841Z,50.67
2018-02-11T08:31:01.412Z,61.53
2018-02-11T08:36:04.025Z,58.80
2018-02-11T08:41:07.416Z,60.97
2018-02-11T08:46:10.811Z,57.17
2018-02-11T08:51:14.667Z,57.93
2018-02-11T08:56:17.279Z,55.23
2018-02-11T09:01:20.704Z,54.53
2018-02-11T09:06:23.356Z,53.70
2018-02-11T09:11:26.625Z,57.20
2018-02-11T09:16:29.213Z,45.27
2018-02-11T09:21:32.059Z,41.70
2018-02-11T09:26:36.322Z,36.57
2018-02-11T09:31:40.351Z,41.90
2018-02-11T09:36:43.886Z,45.10
2018-02-11T09:41:47.484Z,43.60
2018-02-11T09:46:50.992Z,42.23
2018-02-11T09:51:56.472Z,42.07
2018-02-11T09:56:59.986Z,42.80
2018-02-11T10:02:03.531Z,25.97
2018-02-11T10:07:06.318Z,33.30
2018-02-11T10:12:10.005Z,37.33
2018-02-11T10:17:12.962Z,30.63
2018-02-11T10:22:16.334Z,21.37
2018-02-11T10:27:19.143Z,17.17
2018-02-11T10:32:22.906Z,17.27
2018-02-11T10:37:25.611Z,19.90
2018-02-11T10:42:29.306Z,14.97
2018-02-11T10:47:32.699Z,15.13
2018-02-11T10:52:36.215Z,12.53
2018-02-11T10:57:39.891Z,10.30
2018-02-11T11:02:43.579Z,12.67
2018-02-11T11:07:46.967Z,6.20
2018-02-11T11:12:50.448Z,12.10
2018-02-11T11:17:53.979Z,9.53
2018-02-11T11:23:03.242Z,13.27
2018-02-11T11:28:07.023Z,11.10
2018-02-11T11:33:11.351Z,11.30
2018-02-11T11:38:13.993Z,11.83
2018-02-11T11:43:17.411Z,14.20
2018-02-11T11:48:20.075Z,12.63
2018-02-11T11:53:22.858Z,17.80
2018-02-11T11:58:25.630Z,14.60
2018-02-11T12:03:30.258Z,16.17
2018-02-11T12:08:33.917Z,16.93
2018-02-11T12:13:38.416Z,16.23
2018-02-11T12:18:41.053Z,14.70
2018-02-11T12:23:44.781Z,13.77
2018-02-11T12:28:47.437Z,19.63
2018-02-11T12:33:51.641Z,14.43
2018-02-11T12:38:54.478Z,15.30
2018-02-11T12:43:58.330Z,15.37
2018-02-11T12:49:00.956Z,18.07
2018-02-11T12:54:04.127Z,16.33
2018-02-11T12:59:06.764Z,16.17
2018-02-11T13:04:11.123Z,16.70
2018-02-11T13:09:15.563Z,17.53
2018-02-11T13:14:19.405Z,16.20
2018-02-11T13:19:23.351Z,21.07
2018-02-11T13:24:26.552Z,18.00
2018-02-11T13:29:29.951Z,16.57
2018-02-11T13:34:33.597Z,17.93
2018-02-11T13:39:36.957Z,20.53
2018-02-11T13:44:41.870Z,18.17
2018-02-11T13:49:44.508Z,19.03
2018-02-11T13:54:47.450Z,19.23
2018-02-11T13:59:50.087Z,16.93
2018-02-11T14:04:55.131Z,13.53
2018-02-11T14:09:57.746Z,10.17
2018-02-11T14:15:00.542Z,10.07
2018-02-11T14:20:03.175Z,8.33
2018-02-11T14:25:07.932Z,10.10
2018-02-11T14:30:11.681Z,9.17
2018-02-11T14:35:14.579Z,12.80
2018-02-11T14:40:17.175Z,12.87
2018-02-11T14:45:21.256Z,11.57
2018-02-11T14:50:23.909Z,11.47
2018-02-11T14:55:27.148Z,11.17
2018-02-11T15:00:29.852Z,13.83
2018-02-11T15:05:33.916Z,13.43
2018-02-11T15:10:36.538Z,12.73
2018-02-11T15:15:39.287Z,11.23
2018-02-11T15:20:41.907Z,10.97
2018-02-11T15:25:45.402Z,7.93
2018-02-11T15:30:48.056Z,9.73
2018-02-11T15:35:51.512Z,9.77
2018-02-11T15:40:55.039Z,7.53
2018-02-11T15:45:57.928Z,7.50
2018-02-11T15:51:00.644Z,7.17
2018-02-11T15:56:03.855Z,9.83
2018-02-11T16:01:06.609Z,11.30
2018-02-11T16:06:09.793Z,12.17
2018-02-11T16:11:12.408Z,13.83
2018-02-11T16:16:15.064Z,9.03
2018-02-11T16:21:17.868Z,13.07
2018-02-11T16:26:21.319Z,12.00
2018-02-11T16:31:23.957Z,13.10
2018-02-11T16:36:27.497Z,9.67
2018-02-11T16:41:31.127Z,12.07
2018-02-11T16:46:34.416Z,14.50
2018-02-11T16:51:37.152Z,15.10
2018-02-11T16:56:40.598Z,12.90
2018-02-11T17:01:43.363Z,9.10
2018-02-11T17:06:46.692Z,15.43
2018-02-11T17:11:49.330Z,14.97
2018-02-11T17:16:52.183Z,15.03
2018-02-11T17:21:54.792Z,17.83
2018-02-11T17:26:58.341Z,10.53
2018-02-11T17:32:01.102Z,16.40
2018-02-11T17:37:04.543Z,14.73
2018-02-11T17:42:07.352Z,14.10
2018-02-11T17:47:10.817Z,13.37
2018-02-11T17:52:14.204Z,15.03
2018-02-11T17:57:17.150Z,17.20
2018-02-11T18:02:20.698Z,14.13
2018-02-11T18:07:24.071Z,15.07
2018-02-11T18:12:26.878Z,13.80
2018-02-11T18:17:31.344Z,13.33
2018-02-11T18:22:34.105Z,11.83
2018-02-11T18:27:38.564Z,14.83
2018-02-11T18:32:42.109Z,12.30
2018-02-11T18:37:45.525Z,10.60
2018-02-11T18:42:48.222Z,9.07
2018-02-11T18:47:51.770Z,10.73
2018-02-11T18:52:54.551Z,10.57
2018-02-11T18:57:57.782Z,13.07
2018-02-11T19:03:00.444Z,14.67
2018-02-11T19:08:04.186Z,11.97
2018-02-11T19:13:06.904Z,13.57
2018-02-11T19:18:09.529Z,13.53
2018-02-11T19:23:12.320Z,11.30
2018-02-11T19:28:15.189Z,11.83
2018-02-11T19:33:17.863Z,11.67
2018-02-11T19:38:22.192Z,14.30
2018-02-11T19:43:26.483Z,15.23
2018-02-11T19:48:29.822Z,14.40
2018-02-11T19:53:32.425Z,14.70
2018-02-11T19:58:36.071Z,15.17
2018-02-11T20:03:38.931Z,15.17
2018-02-11T20:08:41.824Z,11.77
2018-02-11T20:13:44.651Z,9.70
2018-02-11T20:18:47.908Z,10.03
2018-02-11T20:23:51.314Z,9.37
2018-02-11T20:28:55.318Z,10.30
2018-02-11T20:33:58.209Z,11.00
2018-02-11T20:39:01.244Z,12.03
2018-02-11T20:44:03.881Z,10.83
2018-02-11T20:49:07.741Z,11.87
2018-02-11T20:54:10.346Z,10.93
2018-02-11T20:59:13.422Z,12.60
2018-02-11T21:04:17.207Z,8.93
2018-02-11T21:09:20.766Z,10.20
2018-02-11T21:14:23.383Z,9.50
2018-02-11T21:19:26.647Z,8.70
2018-02-11T21:24:30.813Z,9.87
2018-02-11T21:29:33.721Z,8.90
2018-02-11T21:34:36.409Z,8.13
2018-02-11T21:39:39.990Z,9.27
2018-02-11T21:44:42.628Z,7.97
2018-02-11T21:49:47.081Z,10.47
2018-02-11T21:54:49.882Z,10.30
2018-02-11T21:59:53.061Z,6.20
2018-02-11T22:04:56.614Z,8.23
2018-02-11T22:10:01.416Z,9.03
2018-02-11T22:15:04.173Z,8.20
2018-02-11T22:20:07.460Z,8.30
2018-02-11T22:25:10.878Z,9.67
2018-02-11T22:30:14.767Z,8.27
2018-02-11T22:35:17.423Z,6.83
2018-02-11T22:40:20.676Z,7.17
2018-02-11T22:45:23.359Z,7.63
2018-02-11T22:50:26.351Z,7.00
2018-02-11T22:55:29.050Z,8.43
2018-02-11T23:00:32.629Z,9.73
2018-02-11T23:05:35.267Z,10.53
2018-02-11T23:10:38.110Z,10.50
2018-02-11T23:15:40.743Z,8.20
2018-02-11T23:20:44.080Z,10.93
2018-02-11T23:25:46.710Z,10.07
2018-02-11T23:30:49.842Z,9.23
2018-02-11T23:35:52.781Z,9.43
2018-02-11T23:40:56.602Z,13.30
2018-02-11T23:46:00.322Z,8.20
2018-02-11T23:51:03.461Z,15.40
2018-02-11T23:56:06.398Z,10.60
